Time;durP1;ratioP1;P1;durP2;ratioP2;P2;SDS_P1;SDS_P2;PMS_P1;PMS_P2;Temp;Humidity;BMP_temperature;BMP_pressure;BME280_temperature;BME280_humidity;BME280_pressure;Samples;Min_cycle;Max_cycle;Signal;HPM_P1;HPM_P2
2022/01/05 00:01:14;;;;;;;8.47;2.00;;;;;;;3.54;87.20;100112.97;5113280;28;20020;-36
2022/01/05 00:03:40;;;;;;;8.53;2.33;;;;;;;3.58;87.06;100122.22;5114045;28;20107;-36
2022/01/05 00:06:05;;;;;;;7.00;1.73;;;;;;;3.55;87.37;100125.31;5117051;28;20042;-36
2022/01/05 00:08:31;;;;;;;10.03;1.70;;;;;;;3.52;86.48;100129.22;5117237;28;20027;-35
2022/01/05 00:10:56;;;;;;;12.20;2.07;;;;;;;3.45;86.37;100128.38;5116906;28;20481;-35
2022/01/05 00:13:21;;;;;;;6.67;2.00;;;;;;;3.43;86.52;100126.94;5117954;28;20258;-35
2022/01/05 00:15:47;;;;;;;8.87;2.07;;;;;;;3.42;86.55;100131.47;5117158;28;20134;-35
2022/01/05 00:18:13;;;;;;;6.20;1.57;;;;;;;3.33;86.75;100120.13;5117233;28;20396;-35
2022/01/05 00:20:38;;;;;;;10.13;2.58;;;;;;;3.36;86.75;100125.03;5117311;28;20027;-36
2022/01/05 00:23:03;;;;;;;9.37;2.50;;;;;;;3.34;86.41;100118.28;5116670;28;20396;-36
2022/01/05 00:25:29;;;;;;;11.57;2.53;;;;;;;3.27;85.73;100123.59;5117482;28;20265;-35
2022/01/05 00:27:54;;;;;;;9.50;1.80;;;;;;;3.16;85.99;100112.66;5116814;28;20020;-35
2022/01/05 00:30:19;;;;;;;8.83;1.90;;;;;;;3.22;86.22;100134.06;5117582;28;20044;-35
2022/01/05 00:32:45;;;;;;;10.27;2.40;;;;;;;3.20;85.85;100122.75;5116927;28;20120;-35
2022/01/05 00:35:10;;;;;;;11.83;1.90;;;;;;;3.12;85.56;100128.25;5116463;28;20031;-35
2022/01/05 00:37:35;;;;;;;7.53;1.83;;;;;;;3.17;85.70;100141.84;5116738;28;20356;-35
2022/01/05 00:40:02;;;;;;;11.53;1.90;;;;;;;3.19;85.51;100138.97;5117164;28;20514;-35
2022/01/05 00:42:27;;;;;;;13.38;2.40;;;;;;;3.07;85.32;100122.69;5116531;28;20023;-35
2022/01/05 00:44:53;;;;;;;9.57;2.30;;;;;;;3.15;85.27;100143.06;5116859;28;20028;-35
2022/01/05 00:47:18;;;;;;;8.03;1.63;;;;;;;3.11;85.21;100150.66;5116797;28;20024;-35
2022/01/05 00:49:44;;;;;;;9.23;1.95;;;;;;;3.10;85.01;100151.69;5116848;28;20027;-35
2022/01/05 00:52:09;;;;;;;11.37;2.67;;;;;;;3.00;84.73;100145.88;5116329;28;20051;-35
2022/01/05 00:54:34;;;;;;;13.70;1.80;;;;;;;3.06;84.97;100156.59;5116558;28;20418;-36
2022/01/05 00:57:00;;;;;;;14.50;2.67;;;;;;;3.04;84.64;100158.66;5116309;28;20386;-35
2022/01/05 00:59:25;;;;;;;9.37;2.30;;;;;;;3.00;84.92;100157.38;5116557;28;20471;-36
2022/01/05 01:01:51;;;;;;;8.27;2.57;;;;;;;2.86;84.60;100136.16;5116474;28;20051;-36
2022/01/05 01:04:16;;;;;;;13.60;2.30;;;;;;;2.98;84.29;100155.97;5116775;28;20282;-36
2022/01/05 01:06:41;;;;;;;8.93;2.30;;;;;;;2.89;85.30;100151.81;5115742;28;20738;-36
2022/01/05 01:09:08;;;;;;;10.30;1.93;;;;;;;2.93;85.00;100159.22;5115867;28;20391;-35
2022/01/05 01:11:34;;;;;;;11.32;2.25;;;;;;;2.89;85.48;100163.31;5116123;28;20028;-35
2022/01/05 01:13:59;;;;;;;7.47;1.90;;;;;;;2.87;84.91;100167.19;5116571;28;20121;-35
2022/01/05 01:16:24;;;;;;;13.73;2.50;;;;;;;2.86;85.11;100166.34;5115313;28;20289;-35
2022/01/05 01:18:50;;;;;;;10.83;2.23;;;;;;;2.83;85.17;100167.59;5116241;28;20073;-35
2022/01/05 01:21:15;;;;;;;13.47;2.73;;;;;;;2.80;85.44;100167.97;5115887;28;20092;-35
2022/01/05 01:23:48;;;;;;;7.45;2.03;;;;;;;2.79;85.81;100179.69;5115851;28;20032;-35
2022/01/05 01:26:14;;;;;;;11.27;2.67;;;;;;;2.76;85.20;100180.06;5115756;28;20433;-35
2022/01/05 01:28:39;;;;;;;12.30;2.07;;;;;;;2.75;85.18;100181.09;5116008;28;20032;-35
2022/01/05 01:31:04;;;;;;;10.40;2.23;;;;;;;2.68;84.48;100169.53;5115927;28;20456;-35
2022/01/05 01:33:30;;;;;;;14.23;2.37;;;;;;;2.72;85.14;100176.13;5115618;28;20020;-35
2022/01/05 01:35:55;;;;;;;10.13;2.33;;;;;;;2.72;85.04;100178.78;5115942;28;20047;-35
2022/01/05 01:38:21;;;;;;;10.47;2.33;;;;;;;2.65;84.32;100180.63;5115554;28;20024;-35
2022/01/05 01:40:46;;;;;;;8.63;2.40;;;;;;;2.61;84.45;100168.69;5097002;28;20032;-35
2022/01/05 01:43:11;;;;;;;12.90;2.73;;;;;;;2.58;84.67;100167.19;5115340;28;20107;-35
2022/01/05 01:45:37;;;;;;;8.97;2.37;;;;;;;2.63;84.61;100177.31;5115038;28;20031;-36
2022/01/05 01:48:02;;;;;;;9.20;2.67;;;;;;;2.53;84.84;100163.47;5114967;28;20059;-36
2022/01/05 01:50:28;;;;;;;11.43;2.15;;;;;;;2.57;85.08;100183.44;5114865;28;20138;-35
2022/01/05 01:52:53;;;;;;;11.97;2.30;;;;;;;2.56;85.19;100197.81;5115175;28;20024;-35
2022/01/05 01:55:20;;;;;;;8.43;2.17;;;;;;;2.45;85.15;100179.66;5115771;28;20019;-35
2022/01/05 01:57:46;;;;;;;10.73;2.22;;;;;;;2.50;85.18;100190.56;5115011;28;20066;-36
2022/01/05 02:00:14;;;;;;;7.90;2.35;;;;;;;2.41;85.10;100167.72;5115567;28;20031;-35
2022/01/05 02:02:40;;;;;;;9.55;2.63;;;;;;;2.46;85.24;100191.97;5115004;28;20062;-35
2022/01/05 02:05:06;;;;;;;8.57;2.28;;;;;;;2.44;85.32;100186.84;5115225;28;20043;-36
2022/01/05 02:07:31;;;;;;;13.05;2.85;;;;;;;2.40;85.05;100179.41;5114732;28;20031;-35
2022/01/05 02:09:57;;;;;;;8.90;2.47;;;;;;;2.40;85.45;100190.09;5114816;28;20387;-35
2022/01/05 02:12:26;;;;;;;8.00;2.40;;;;;;;2.35;85.68;100176.50;5114808;28;20398;-35
2022/01/05 02:14:52;;;;;;;13.80;2.70;;;;;;;2.27;85.03;100180.13;5114733;28;20448;-35
2022/01/05 02:17:21;;;;;;;10.38;2.40;;;;;;;2.27;85.61;100186.28;5115006;28;20024;-35
2022/01/05 02:19:47;;;;;;;13.82;4.28;;;;;;;2.24;84.99;100183.16;5115188;28;20433;-35
2022/01/05 02:22:12;;;;;;;10.73;2.67;;;;;;;2.24;85.59;100189.31;5114636;28;20088;-35
2022/01/05 02:24:38;;;;;;;13.73;2.80;;;;;;;2.23;85.64;100184.19;5114778;28;20065;-35
2022/01/05 02:27:04;;;;;;;9.57;2.85;;;;;;;2.09;85.80;100175.25;5114395;28;20027;-35
2022/01/05 02:29:29;;;;;;;7.72;2.00;;;;;;;2.15;85.61;100182.50;5115204;28;20032;-35
2022/01/05 02:31:57;;;;;;;9.03;2.80;;;;;;;2.15;85.68;100187.84;5114062;28;20099;-35
2022/01/05 02:34:22;;;;;;;8.02;2.33;;;;;;;2.13;85.64;100187.19;5114879;28;20455;-35
2022/01/05 02:36:47;;;;;;;9.93;2.40;;;;;;;2.09;86.00;100198.44;5114376;28;20098;-35
2022/01/05 02:39:13;;;;;;;9.37;2.47;;;;;;;2.07;85.91;100201.28;5114656;28;20034;-35
2022/01/05 02:41:38;;;;;;;10.10;2.33;;;;;;;2.07;85.63;100201.28;5114056;28;20529;-35
2022/01/05 02:44:04;;;;;;;8.70;2.30;;;;;;;2.03;85.76;100203.50;5114348;28;20455;-35
2022/01/05 02:46:29;;;;;;;7.78;3.05;;;;;;;2.09;85.86;100206.44;5114220;28;20023;-35
2022/01/05 02:48:54;;;;;;;13.33;2.17;;;;;;;2.05;85.67;100200.69;5096151;28;20471;-35
2022/01/05 02:51:20;;;;;;;10.60;3.07;;;;;;;1.93;85.56;100197.69;5114580;28;20024;-35
2022/01/05 02:53:46;;;;;;;13.13;2.75;;;;;;;2.00;85.70;100213.72;5113810;28;20039;-35
2022/01/05 02:56:12;;;;;;;12.27;2.40;;;;;;;1.96;85.31;100213.31;5095723;28;20539;-35
2022/01/05 02:58:38;;;;;;;10.52;2.30;;;;;;;1.91;85.76;100213.06;5114536;28;20032;-35
2022/01/05 03:01:04;;;;;;;13.30;3.65;;;;;;;1.91;85.56;100221.06;5113649;28;20023;-35
2022/01/05 03:03:30;;;;;;;10.73;2.15;;;;;;;1.92;86.09;100227.22;5113964;28;20023;-35
2022/01/05 03:05:55;;;;;;;8.90;2.10;;;;;;;1.88;85.59;100229.41;5114198;28;20456;-36
2022/01/05 03:08:20;;;;;;;11.37;2.27;;;;;;;1.79;85.40;100215.38;5114140;28;20262;-35
2022/01/05 03:10:46;;;;;;;11.57;2.17;;;;;;;1.85;85.53;100237.78;5113765;28;20153;-35
2022/01/05 03:13:11;;;;;;;8.98;2.08;;;;;;;1.85;85.48;100236.97;5113528;28;20364;-35
2022/01/05 03:15:37;;;;;;;10.60;1.93;;;;;;;1.76;85.34;100221.09;5113396;28;20434;-35
2022/01/05 03:18:04;;;;;;;8.23;2.27;;;;;;;1.85;85.54;100245.78;5113454;28;20053;-35
2022/01/05 03:20:30;;;;;;;10.50;2.05;;;;;;;1.78;85.11;100231.56;5114425;28;20055;-35
2022/01/05 03:22:57;;;;;;;13.27;3.17;;;;;;;1.85;84.51;100242.28;5094728;28;20039;-35
2022/01/05 03:25:23;;;;;;;10.65;2.05;;;;;;;1.84;84.20;100240.66;5113661;28;20115;-35
2022/01/05 03:27:50;;;;;;;10.00;2.25;;;;;;;1.68;84.32;100223.06;5113675;28;20051;-35
2022/01/05 03:30:19;;;;;;;11.48;2.17;;;;;;;1.88;84.37;100252.59;5114111;28;20109;-35
2022/01/05 03:33:08;;;;;;;11.75;2.45;;;;;;;1.88;84.16;100257.91;5113671;28;20030;-35
2022/01/05 03:35:39;;;;;;;7.15;2.28;;;;;;;1.86;84.21;100251.97;5113879;28;20036;-35
2022/01/05 03:38:05;;;;;;;8.18;2.15;;;;;;;1.89;83.77;100259.56;5114417;28;20034;-35
2022/01/05 03:40:32;;;;;;;11.73;2.50;;;;;;;1.78;83.90;100245.72;5117574;28;20028;-35
2022/01/05 03:42:58;;;;;;;14.43;2.92;;;;;;;1.89;83.93;100254.25;5117744;28;20035;-36
2022/01/05 03:45:23;;;;;;;6.82;2.42;;;;;;;1.91;83.43;100257.56;5118336;28;20391;-36
2022/01/05 03:47:49;;;;;;;11.00;2.10;;;;;;;1.91;83.35;100260.22;5117428;28;20077;-36
2022/01/05 03:50:14;;;;;;;9.48;2.40;;;;;;;1.91;83.26;100257.56;5098639;28;20065;-36
2022/01/05 03:52:39;;;;;;;9.97;2.70;;;;;;;1.92;83.54;100257.34;5117302;28;20088;-36
2022/01/05 03:55:06;;;;;;;12.10;2.90;;;;;;;1.93;83.39;100258.19;5117277;28;20365;-36
2022/01/05 03:57:32;;;;;;;16.10;2.90;;;;;;;1.82;83.84;100242.69;5117041;28;20024;-36
2022/01/05 03:59:58;;;;;;;8.52;2.53;;;;;;;1.86;83.62;100249.31;5117995;28;20028;-36
2022/01/05 04:02:24;;;;;;;10.45;2.40;;;;;;;1.87;84.05;100262.44;5117090;28;20388;-36
2022/01/05 04:04:49;;;;;;;13.73;2.40;;;;;;;1.86;84.09;100266.13;5117651;28;20388;-36
2022/01/05 04:07:16;;;;;;;9.57;2.60;;;;;;;1.82;83.99;100264.00;5117554;28;20041;-36
2022/01/05 04:09:41;;;;;;;16.10;3.20;;;;;;;1.81;84.40;100268.53;5118022;28;20505;-36
2022/01/05 04:12:07;;;;;;;15.50;2.70;;;;;;;1.78;84.51;100277.72;5116959;28;20035;-36
2022/01/05 04:14:32;;;;;;;11.88;2.30;;;;;;;1.78;85.19;100267.03;5117147;28;20051;-36
2022/01/05 04:16:57;;;;;;;13.00;2.70;;;;;;;1.68;85.03;100269.19;5098430;28;20051;-36
2022/01/05 04:19:23;;;;;;;10.63;2.93;;;;;;;1.68;84.52;100279.84;5117517;28;20134;-36
2022/01/05 04:21:50;;;;;;;9.55;2.67;;;;;;;1.59;85.10;100264.16;5117562;28;20501;-36
2022/01/05 04:24:15;;;;;;;14.20;2.70;;;;;;;1.66;86.29;100278.38;5117311;28;20047;-36
2022/01/05 04:26:40;;;;;;;12.67;2.40;;;;;;;1.62;85.87;100280.59;5116989;28;20028;-36
2022/01/05 04:29:06;;;;;;;10.83;2.93;;;;;;;1.61;86.08;100286.94;5117480;28;20077;-36
2022/01/05 04:31:31;;;;;;;10.07;2.40;;;;;;;1.60;86.04;100285.28;5117156;28;20055;-36
2022/01/05 04:33:56;;;;;;;8.77;2.30;;;;;;;1.53;86.13;100276.38;5117150;28;20031;-36
2022/01/05 04:36:22;;;;;;;12.20;3.07;;;;;;;1.53;85.90;100284.38;5116739;28;20440;-36
2022/01/05 04:38:47;;;;;;;17.87;3.70;;;;;;;1.58;86.40;100297.16;5116728;28;20048;-36
2022/01/05 04:41:12;;;;;;;8.80;2.47;;;;;;;1.51;86.46;100289.91;5116951;28;20110;-36
2022/01/05 04:43:38;;;;;;;12.23;2.83;;;;;;;1.60;86.56;100303.94;5116652;28;20028;-36
2022/01/05 04:46:03;;;;;;;12.17;3.53;;;;;;;1.61;86.59;100302.94;5116969;28;20027;-36
2022/01/05 04:48:29;;;;;;;13.13;2.63;;;;;;;1.55;86.53;100301.81;5116858;28;20212;-36
2022/01/05 04:50:55;;;;;;;12.65;2.83;;;;;;;1.52;86.29;100286.22;5115652;28;20076;-36
2022/01/05 04:53:20;;;;;;;9.80;2.33;;;;;;;1.65;86.80;100296.19;5116496;28;20032;-36
2022/01/05 04:55:46;;;;;;;13.70;2.30;;;;;;;1.76;86.19;100305.59;5116215;28;20148;-36
2022/01/05 04:58:11;;;;;;;9.52;2.30;;;;;;;1.79;86.64;100306.00;5116610;28;20039;-36
2022/01/05 05:00:37;;;;;;;11.37;2.30;;;;;;;1.76;86.67;100287.75;5116629;28;20030;-36
2022/01/05 05:03:03;;;;;;;16.57;2.70;;;;;;;1.87;86.59;100309.59;5116205;28;20085;-36
2022/01/05 05:05:28;;;;;;;;;;;;;;;1.92;86.83;100304.53;5116351;28;20102;-36
2022/01/05 05:07:53;;;;;;;13.23;3.03;;;;;;;1.89;86.47;100308.38;5116382;28;19963;-36
2022/01/05 05:10:19;;;;;;;12.23;2.63;;;;;;;1.93;86.54;100308.84;5116115;28;20030;-36
2022/01/05 05:12:45;;;;;;;15.43;2.63;;;;;;;1.87;86.22;100298.94;5116107;28;20185;-36
2022/01/05 05:15:10;;;;;;;8.80;2.80;;;;;;;1.79;86.91;100291.88;5116032;28;20085;-36
2022/01/05 05:17:35;;;;;;;14.20;2.80;;;;;;;1.98;86.87;100306.44;5116033;28;20475;-36
2022/01/05 05:20:01;;;;;;;14.60;2.67;;;;;;;1.94;86.38;100302.50;5116274;28;20114;-36
2022/01/05 05:22:26;;;;;;;15.73;4.03;;;;;;;1.87;87.47;100282.94;5115844;28;20024;-36
2022/01/05 05:24:51;;;;;;;12.80;3.07;;;;;;;2.04;87.26;100303.00;5097308;28;20479;-36
2022/01/05 05:27:17;;;;;;;12.17;3.07;;;;;;;2.05;87.31;100302.03;5115840;28;20073;-36
2022/01/05 05:29:42;;;;;;;12.10;2.80;;;;;;;2.04;87.27;100289.69;5115739;28;20027;-36
2022/01/05 05:32:08;;;;;;;15.20;2.53;;;;;;;2.06;87.15;100298.34;5115680;28;20027;-36
2022/01/05 05:34:33;;;;;;;9.77;2.55;;;;;;;1.90;87.42;100271.88;5115949;28;20310;-36
2022/01/05 05:36:59;;;;;;;13.83;2.57;;;;;;;2.10;87.86;100304.94;5115564;28;20040;-36
2022/01/05 05:39:24;;;;;;;13.20;3.30;;;;;;;1.98;87.23;100274.44;5116169;28;20447;-36
2022/01/05 05:41:49;;;;;;;18.13;3.03;;;;;;;2.15;87.16;100307.88;5115469;28;20028;-36
2022/01/05 05:44:15;;;;;;;8.57;2.20;;;;;;;2.17;87.88;100305.84;5115953;28;20024;-36
2022/01/05 05:46:40;;;;;;;21.13;3.65;;;;;;;2.20;87.63;100309.97;5115092;28;20030;-36
2022/01/05 05:49:06;;;;;;;15.80;3.00;;;;;;;2.06;87.79;100290.34;5115530;28;20026;-36
2022/01/05 05:51:31;;;;;;;13.17;2.40;;;;;;;2.06;87.59;100287.66;5114940;28;20042;-37
2022/01/05 05:53:56;;;;;;;14.53;3.90;;;;;;;2.26;87.74;100315.38;5115721;28;20032;-36
2022/01/05 05:56:21;;;;;;;11.67;2.70;;;;;;;2.30;87.86;100316.66;5115024;28;20035;-36
2022/01/05 05:58:48;;;;;;;12.83;2.53;;;;;;;2.26;88.07;100306.53;5115165;28;20111;-36
2022/01/05 06:01:13;;;;;;;11.52;2.70;;;;;;;2.33;88.25;100326.91;5115145;28;20028;-37
2022/01/05 06:03:38;;;;;;;12.57;2.90;;;;;;;2.37;88.01;100326.56;5114619;28;20399;-37
2022/01/05 06:06:04;;;;;;;12.17;3.20;;;;;;;2.35;88.97;100312.59;5115235;28;20032;-36
2022/01/05 06:08:29;;;;;;;13.80;2.67;;;;;;;2.29;88.19;100298.13;5114984;28;20384;-34
2022/01/05 06:10:54;;;;;;;19.83;3.40;;;;;;;2.35;88.48;100305.41;5114672;28;20063;-36
2022/01/05 06:13:20;;;;;;;11.43;2.37;;;;;;;2.18;88.72;100286.13;5115125;28;20072;-37
2022/01/05 06:15:45;;;;;;;14.63;2.70;;;;;;;2.25;89.07;100296.91;5114950;28;20433;-37
2022/01/05 06:18:10;;;;;;;14.03;3.20;;;;;;;2.33;88.89;100321.59;5115301;28;20439;-37
2022/01/05 06:20:36;;;;;;;14.47;3.33;;;;;;;2.37;88.56;100322.03;5114803;28;20075;-34
2022/01/05 06:23:01;;;;;;;14.07;2.97;;;;;;;2.35;88.79;100318.75;5114863;28;20057;-35
2022/01/05 06:25:26;;;;;;;17.70;3.20;;;;;;;2.38;89.07;100318.34;5114600;28;20027;-35
2022/01/05 06:27:52;;;;;;;17.57;3.50;;;;;;;2.39;88.93;100325.38;5114508;28;20324;-35
2022/01/05 06:30:17;;;;;;;17.93;3.77;;;;;;;2.40;89.34;100327.00;5114672;28;20385;-35
2022/01/05 06:32:45;;;;;;;17.63;3.33;;;;;;;2.44;89.31;100330.09;5114635;28;20493;-35
2022/01/05 06:35:11;;;;;;;15.05;3.42;;;;;;;2.45;88.83;100337.94;5114607;28;20562;-35
2022/01/05 06:37:36;;;;;;;18.30;3.65;;;;;;;2.49;89.05;100339.22;5114927;28;20023;-35
2022/01/05 06:40:02;;;;;;;12.93;2.80;;;;;;;2.45;89.83;100329.94;5114103;28;20034;-35
2022/01/05 06:42:28;;;;;;;18.38;3.60;;;;;;;2.29;89.30;100304.31;5113941;28;20019;-35
2022/01/05 06:44:53;;;;;;;17.30;3.83;;;;;;;2.52;89.53;100340.66;5114600;28;20028;-35
2022/01/05 06:47:18;;;;;;;13.20;3.50;;;;;;;2.53;89.94;100344.97;5114210;28;20035;-35
2022/01/05 06:49:44;;;;;;;11.10;3.00;;;;;;;2.55;89.56;100346.44;5113809;28;20446;-35
2022/01/05 06:52:11;;;;;;;18.43;3.67;;;;;;;2.51;89.64;100333.69;5114562;28;20019;-35
2022/01/05 06:54:37;;;;;;;14.95;3.45;;;;;;;2.62;89.68;100354.50;5114278;28;20390;-35
2022/01/05 06:57:03;;;;;;;15.90;3.33;;;;;;;2.66;89.83;100371.81;5113571;28;20100;-35
2022/01/05 06:59:28;;;;;;;9.88;2.42;;;;;;;2.67;89.88;100370.78;5114141;28;20035;-35
2022/01/05 07:01:53;;;;;;;17.00;2.90;;;;;;;2.61;89.81;100363.53;5114131;28;20512;-35
2022/01/05 07:04:19;;;;;;;17.87;3.07;;;;;;;2.71;90.07;100376.56;5113933;28;20421;-35
2022/01/05 07:06:44;;;;;;;11.80;3.00;;;;;;;2.77;89.38;100386.47;5113791;28;20133;-35
2022/01/05 07:09:09;;;;;;;14.80;2.93;;;;;;;2.77;89.78;100381.13;5114120;28;20344;-35
2022/01/05 07:11:35;;;;;;;13.87;2.93;;;;;;;2.57;89.55;100340.91;5113764;28;20027;-35
2022/01/05 07:14:01;;;;;;;16.17;3.47;;;;;;;2.84;89.25;100385.53;5113049;28;20055;-36
2022/01/05 07:16:27;;;;;;;14.38;3.15;;;;;;;2.66;88.93;100345.09;5113817;28;20051;-35
2022/01/05 07:18:52;;;;;;;16.10;3.70;;;;;;;2.92;89.05;100378.41;5113763;28;20030;-35
2022/01/05 07:21:17;;;;;;;16.80;3.20;;;;;;;2.94;89.23;100387.88;5113507;28;20028;-35
2022/01/05 07:23:43;;;;;;;18.03;2.83;;;;;;;2.96;88.78;100388.50;5113801;28;20034;-35
2022/01/05 07:26:08;;;;;;;18.17;3.20;;;;;;;3.00;88.77;100391.63;5113531;28;20036;-35
2022/01/05 07:28:33;;;;;;;15.93;2.97;;;;;;;3.06;87.95;100398.88;5114459;28;20028;-35
2022/01/05 07:30:59;;;;;;;14.87;3.70;;;;;;;3.03;87.84;100383.25;5113483;28;20038;-35
2022/01/05 07:33:26;;;;;;;19.20;3.77;;;;;;;3.13;87.37;100390.91;5114066;28;20063;-35
2022/01/05 07:35:52;;;;;;;15.95;3.22;;;;;;;3.13;87.85;100394.41;5114103;28;20035;-35
2022/01/05 07:38:17;;;;;;;12.50;2.88;;;;;;;3.22;87.92;100409.28;5113511;28;20031;-35
2022/01/05 07:40:42;;;;;;;11.10;3.47;;;;;;;3.26;86.83;100410.53;5113400;28;20089;-35
2022/01/05 07:43:08;;;;;;;14.70;3.10;;;;;;;3.18;87.03;100385.81;5087815;28;20031;-35
2022/01/05 07:45:36;;;;;;;18.25;3.60;;;;;;;3.28;87.56;100400.50;5093232;28;20028;-35
2022/01/05 07:48:05;;;;;;;12.60;3.05;;;;;;;3.33;87.09;100399.91;5093458;28;20031;-35
2022/01/05 07:50:32;;;;;;;10.35;2.53;;;;;;;3.36;87.14;100419.03;5092810;28;20475;-35
2022/01/05 07:53:00;;;;;;;11.75;2.83;;;;;;;3.37;87.16;100419.91;5092750;28;20032;-35
2022/01/05 07:55:26;;;;;;;18.08;3.13;;;;;;;3.41;87.46;100442.50;5093061;28;20028;-35
2022/01/05 07:57:52;;;;;;;15.65;3.78;;;;;;;3.42;87.29;100436.16;5093047;28;20093;-35
2022/01/05 08:00:17;;;;;;;15.73;3.47;;;;;;;3.45;87.27;100443.78;5093089;28;20063;-35
2022/01/05 08:02:42;;;;;;;11.53;2.43;;;;;;;3.46;86.67;100449.94;5093667;28;20032;-35
2022/01/05 08:05:08;;;;;;;16.17;3.47;;;;;;;3.49;87.03;100450.41;5093103;28;20286;-35
2022/01/05 08:07:33;;;;;;;19.87;4.10;;;;;;;3.51;86.56;100450.19;5092949;28;20107;-35
2022/01/05 08:09:59;;;;;;;16.47;3.23;;;;;;;3.45;86.95;100442.97;5093013;28;20030;-36
2022/01/05 08:12:24;;;;;;;12.83;2.80;;;;;;;3.53;86.84;100445.50;5093525;28;20149;-35
2022/01/05 08:14:49;;;;;;;14.43;3.63;;;;;;;3.58;86.30;100445.75;5093430;28;20020;-35
2022/01/05 08:17:15;;;;;;;14.43;3.70;;;;;;;3.57;86.69;100446.75;5092915;28;20047;-35
2022/01/05 08:19:41;;;;;;;10.97;2.57;;;;;;;3.55;86.67;100432.75;5093222;28;20073;-35
2022/01/05 08:22:06;;;;;;;17.05;3.25;;;;;;;3.56;86.60;100429.91;5093341;28;20395;-35
2022/01/05 08:24:32;;;;;;;17.90;3.37;;;;;;;3.56;86.80;100437.06;5093082;28;20035;-35
2022/01/05 08:26:57;;;;;;;12.60;2.90;;;;;;;3.56;86.54;100439.75;5096639;28;20094;-35
2022/01/05 08:29:23;;;;;;;12.87;3.03;;;;;;;3.56;86.25;100442.41;5096591;28;20024;-36
2022/01/05 08:31:49;;;;;;;15.65;3.75;;;;;;;3.58;86.36;100454.59;5096731;28;20031;-36
2022/01/05 08:34:14;;;;;;;16.33;3.45;;;;;;;3.58;86.58;100443.88;5096426;28;20483;-36
2022/01/05 08:36:40;;;;;;;18.23;3.30;;;;;;;3.57;86.86;100441.41;5096132;28;20028;-36
2022/01/05 08:39:05;;;;;;;14.37;2.93;;;;;;;3.55;86.80;100448.78;5096636;28;20036;-35
2022/01/05 08:41:30;;;;;;;17.33;3.43;;;;;;;3.55;86.72;100446.13;5096393;28;20024;-35
2022/01/05 08:43:56;;;;;;;14.13;3.03;;;;;;;3.55;86.74;100448.78;5078319;28;20119;-35
2022/01/05 08:46:21;;;;;;;10.17;3.17;;;;;;;3.57;86.51;100449.44;5096228;28;20114;-36
2022/01/05 08:48:47;;;;;;;17.58;3.50;;;;;;;3.60;86.52;100443.69;5096416;28;20367;-36
2022/01/05 08:51:12;;;;;;;11.83;2.77;;;;;;;3.63;86.93;100445.16;5096405;28;20476;-36
2022/01/05 08:53:38;;;;;;;13.37;2.53;;;;;;;3.62;87.10;100441.66;5095893;28;20024;-35
2022/01/05 08:56:03;;;;;;;16.47;3.00;;;;;;;3.78;86.82;100446.69;5096042;28;20111;-35
2022/01/05 08:58:29;;;;;;;13.10;2.85;;;;;;;3.92;87.05;100465.50;5095975;28;20020;-35
2022/01/05 09:00:54;;;;;;;13.77;3.27;;;;;;;4.03;86.39;100467.63;5078281;28;20054;-35
2022/01/05 09:03:19;;;;;;;17.03;3.03;;;;;;;3.91;85.44;100442.47;5095929;28;20409;-36
2022/01/05 09:05:45;;;;;;;13.30;2.90;;;;;;;4.12;85.30;100474.47;5096563;28;20047;-36
2022/01/05 09:08:11;;;;;;;15.38;3.10;;;;;;;4.14;85.72;100475.91;5095598;28;20072;-35
2022/01/05 09:10:37;;;;;;;14.80;3.17;;;;;;;4.12;85.98;100477.16;5095682;28;20028;-35
2022/01/05 09:13:03;;;;;;;;;;;;;;;4.16;86.50;100485.59;5096130;28;20075;-35
2022/01/05 09:15:30;;;;;;;19.95;3.50;;;;;;;4.00;86.41;100457.31;5095651;28;20372;-36
2022/01/05 09:17:55;;;;;;;13.07;3.17;;;;;;;4.08;86.97;100491.94;5095494;28;20480;-35
2022/01/05 09:20:21;;;;;;;23.93;4.07;;;;;;;3.95;88.32;100478.47;5095619;28;20032;-35
2022/01/05 09:22:46;;;;;;;19.60;3.87;;;;;;;3.96;88.31;100472.94;5095222;28;20126;-35
2022/01/05 09:25:14;;;;;;;14.07;2.77;;;;;;;4.00;88.32;100489.41;5095481;28;20467;-35
2022/01/05 09:27:40;;;;;;;13.93;4.00;;;;;;;4.00;89.30;100492.94;5095816;28;20346;-35
2022/01/05 09:30:07;;;;;;;;;;;;;;;4.07;88.74;100511.69;5095688;28;20077;-35
2022/01/05 09:32:32;;;;;;;14.30;3.17;;;;;;;4.00;89.38;100503.63;5095445;28;20287;-35
2022/01/05 09:34:58;;;;;;;13.97;3.40;;;;;;;4.02;89.29;100509.59;5094952;28;20265;-35
2022/01/05 09:37:31;;;;;;;19.10;3.60;;;;;;;4.02;89.09;100511.47;5094345;28;20028;-35
2022/01/05 09:42:42;;;;;;;22.55;4.03;;;;;;;4.03;89.38;100505.91;5095366;28;20101;-35
2022/01/05 09:45:16;;;;;;;;;;;;;;;4.07;88.64;100527.75;5095749;28;20031;-35
2022/01/05 09:48:02;;;;;;;17.77;4.05;;;;;;;4.06;89.19;100520.75;5094580;28;19912;-35
2022/01/05 09:50:28;;;;;;;13.45;3.75;;;;;;;4.04;89.39;100520.94;5094837;28;20024;-35
2022/01/05 09:52:54;;;;;;;16.92;3.70;;;;;;;4.01;89.65;100518.66;5094901;28;20085;-35
2022/01/05 09:55:20;;;;;;;22.92;4.32;;;;;;;4.06;89.28;100526.94;5095583;28;20109;-36
2022/01/05 09:57:46;;;;;;;13.18;3.38;;;;;;;4.06;89.48;100526.09;5094439;28;20472;-35
2022/01/05 10:00:14;;;;;;;17.08;3.60;;;;;;;4.09;89.72;100533.72;5095331;28;20028;-35
2022/01/05 10:02:41;;;;;;;14.90;3.08;;;;;;;4.09;90.13;100533.72;5094865;28;20023;-35
2022/01/05 10:05:10;;;;;;;20.27;3.58;;;;;;;4.11;90.21;100534.38;5094647;28;20112;-35
2022/01/05 10:07:36;;;;;;;17.88;3.55;;;;;;;4.14;90.20;100542.00;5094539;28;20028;-35
2022/01/05 10:10:03;;;;;;;17.30;3.57;;;;;;;4.05;90.28;100514.59;5094601;28;20404;-35
2022/01/05 10:12:28;;;;;;;17.05;3.22;;;;;;;4.13;90.38;100537.66;5094192;28;20028;-35
2022/01/05 10:14:53;;;;;;;10.10;2.60;;;;;;;4.16;90.06;100539.97;5076234;28;20047;-35
2022/01/05 10:17:28;;;;;;;16.67;3.60;;;;;;;4.33;89.89;100557.34;5075837;28;20044;-35
2022/01/05 10:20:07;;;;;;;15.18;2.65;;;;;;;4.43;88.92;100558.84;5094317;28;20032;-35
2022/01/05 10:22:41;;;;;;;14.85;3.95;;;;;;;4.48;89.22;100564.44;5094746;28;20020;-35
2022/01/05 10:25:23;;;;;;;11.95;2.50;;;;;;;4.49;89.42;100555.38;5094722;28;20115;-35
2022/01/05 10:27:59;;;;;;;18.23;3.40;;;;;;;4.31;88.83;100529.13;5094130;28;20047;-35
2022/01/05 10:30:35;;;;;;;;;;;;;;;4.54;88.88;100567.16;5094491;28;20035;-36
2022/01/05 10:33:01;;;;;;;13.93;3.00;;;;;;;4.51;89.15;100558.69;5094571;28;19912;-35
2022/01/05 10:35:27;;;;;;;16.73;2.88;;;;;;;4.49;88.37;100552.69;5093997;28;20027;-35
2022/01/05 10:38:03;;;;;;;18.92;3.70;;;;;;;4.56;87.77;100570.44;5094153;28;20028;-35
2022/01/05 10:40:32;;;;;;;16.17;3.85;;;;;;;4.51;88.10;100556.00;5094188;28;20036;-35
2022/01/05 10:42:58;;;;;;;16.30;3.47;;;;;;;4.65;86.76;100579.16;5093593;28;20169;-35
2022/01/05 10:45:38;;;;;;;19.63;3.47;;;;;;;4.62;86.83;100560.78;5093907;28;20057;-35
2022/01/05 10:48:07;;;;;;;15.18;2.55;;;;;;;4.78;86.91;100573.88;5093849;28;20276;-36
2022/01/05 10:50:34;;;;;;;18.35;4.22;;;;;;;4.87;87.08;100594.06;5094464;28;20028;-35
2022/01/05 10:52:59;;;;;;;;;;;;;;;4.97;86.39;100590.19;5094116;28;20093;-35
2022/01/05 10:55:27;;;;;;;13.35;2.85;;;;;;;4.87;85.82;100575.31;5093707;28;19915;-35
2022/01/05 10:58:10;;;;;;;12.30;3.55;;;;;;;4.93;86.00;100592.47;5093898;28;20042;-35
2022/01/05 11:00:45;;;;;;;17.30;4.15;;;;;;;4.89;86.25;100586.69;5094179;28;20544;-35
2022/01/05 11:03:31;;;;;;;12.98;2.75;;;;;;;4.90;86.26;100601.72;5093578;28;20368;-35
2022/01/05 11:06:16;;;;;;;14.88;3.00;;;;;;;4.75;86.15;100568.91;5094014;28;20050;-35
2022/01/05 11:08:47;;;;;;;18.23;3.50;;;;;;;4.89;86.45;100613.47;5093214;28;20074;-35
2022/01/05 11:11:30;;;;;;;16.45;3.25;;;;;;;4.98;85.99;100615.97;5093224;28;20024;-35
2022/01/05 11:13:56;;;;;;;20.45;3.90;;;;;;;4.95;85.89;100613.72;5093684;28;20060;-35
2022/01/05 11:16:28;;;;;;;10.43;3.47;;;;;;;5.01;86.92;100615.56;5093937;28;20079;-35
2022/01/05 11:19:14;;;;;;;18.38;3.80;;;;;;;5.05;86.39;100614.16;5094245;28;20399;-35
2022/01/05 11:21:55;;;;;;;15.25;3.55;;;;;;;5.07;86.61;100606.72;5093634;28;20024;-35
2022/01/05 11:24:21;;;;;;;23.15;4.88;;;;;;;5.07;87.61;100622.81;5093631;28;20020;-35
2022/01/05 11:26:47;;;;;;;21.38;3.85;;;;;;;5.10;86.21;100615.19;5093657;28;20028;-35
2022/01/05 11:29:12;;;;;;;11.88;2.88;;;;;;;5.09;86.97;100610.06;5093467;28;20035;-35